sensor_id;sensor_type;location;lat;lon;timestamp;temperature;humidity
54960;DHT22;40860;51.710;8.736;2023-05-19T00:03:51;9.70;86.00
54960;DHT22;40860;51.710;8.736;2023-05-19T00:07:58;9.70;86.00
54960;DHT22;40860;51.710;8.736;2023-05-19T00:12:01;9.60;86.50
54960;DHT22;40860;51.710;8.736;2023-05-19T00:16:05;9.60;87.20
54960;DHT22;40860;51.710;8.736;2023-05-19T00:20:10;9.60;87.00
54960;DHT22;40860;51.710;8.736;2023-05-19T00:24:14;9.50;87.40
54960;DHT22;40860;51.710;8.736;2023-05-19T00:32:21;9.40;87.00
54960;DHT22;40860;51.710;8.736;2023-05-19T00:36:25;9.40;87.90
54960;DHT22;40860;51.710;8.736;2023-05-19T00:40:30;9.40;88.30
54960;DHT22;40860;51.710;8.736;2023-05-19T00:44:35;9.30;88.10
54960;DHT22;40860;51.710;8.736;2023-05-19T00:48:39;9.20;88.40
54960;DHT22;40860;51.710;8.736;2023-05-19T00:52:43;9.20;88.70
54960;DHT22;40860;51.710;8.736;2023-05-19T00:56:47;9.10;88.80
54960;DHT22;40860;51.710;8.736;2023-05-19T01:00:50;9.10;89.30
54960;DHT22;40860;51.710;8.736;2023-05-19T01:04:54;9.00;89.50
54960;DHT22;40860;51.710;8.736;2023-05-19T01:08:59;9.00;90.00
54960;DHT22;40860;51.710;8.736;2023-05-19T01:13:02;9.00;90.10
54960;DHT22;40860;51.710;8.736;2023-05-19T01:17:11;9.00;90.00
54960;DHT22;40860;51.710;8.736;2023-05-19T01:21:47;9.00;89.90
54960;DHT22;40860;51.710;8.736;2023-05-19T01:26:23;9.00;90.20
54960;DHT22;40860;51.710;8.736;2023-05-19T01:30:36;8.90;90.80
54960;DHT22;40860;51.710;8.736;2023-05-19T01:34:42;8.80;90.50
54960;DHT22;40860;51.710;8.736;2023-05-19T01:38:47;8.80;90.70
54960;DHT22;40860;51.710;8.736;2023-05-19T01:42:52;8.80;90.70
54960;DHT22;40860;51.710;8.736;2023-05-19T01:47:01;8.80;90.70
54960;DHT22;40860;51.710;8.736;2023-05-19T01:51:04;8.80;90.60
54960;DHT22;40860;51.710;8.736;2023-05-19T01:55:08;8.70;90.70
54960;DHT22;40860;51.710;8.736;2023-05-19T01:59:26;8.70;90.70
54960;DHT22;40860;51.710;8.736;2023-05-19T02:03:41;8.60;90.80
54960;DHT22;40860;51.710;8.736;2023-05-19T02:08:02;8.70;91.30
54960;DHT22;40860;51.710;8.736;2023-05-19T02:12:13;8.60;91.10
54960;DHT22;40860;51.710;8.736;2023-05-19T02:16:20;8.60;90.90
54960;DHT22;40860;51.710;8.736;2023-05-19T02:20:26;8.60;90.80
54960;DHT22;40860;51.710;8.736;2023-05-19T02:24:29;8.50;91.40
54960;DHT22;40860;51.710;8.736;2023-05-19T02:28:33;8.40;91.30
54960;DHT22;40860;51.710;8.736;2023-05-19T02:32:37;8.40;91.50
54960;DHT22;40860;51.710;8.736;2023-05-19T02:36:41;8.40;91.30
54960;DHT22;40860;51.710;8.736;2023-05-19T02:40:44;8.40;91.40
54960;DHT22;40860;51.710;8.736;2023-05-19T02:44:48;8.30;91.40
54960;DHT22;40860;51.710;8.736;2023-05-19T02:48:51;8.30;91.40
54960;DHT22;40860;51.710;8.736;2023-05-19T02:52:56;8.30;91.40
54960;DHT22;40860;51.710;8.736;2023-05-19T02:56:59;8.20;91.60
54960;DHT22;40860;51.710;8.736;2023-05-19T03:01:02;8.20;91.70
54960;DHT22;40860;51.710;8.736;2023-05-19T03:05:06;8.20;91.60
54960;DHT22;40860;51.710;8.736;2023-05-19T03:09:12;8.10;92.00
54960;DHT22;40860;51.710;8.736;2023-05-19T03:13:15;8.10;92.00
54960;DHT22;40860;51.710;8.736;2023-05-19T03:17:18;8.10;92.10
54960;DHT22;40860;51.710;8.736;2023-05-19T03:21:21;8.00;92.20
54960;DHT22;40860;51.710;8.736;2023-05-19T03:25:26;7.90;92.10
54960;DHT22;40860;51.710;8.736;2023-05-19T03:29:31;7.90;92.50
54960;DHT22;40860;51.710;8.736;2023-05-19T03:33:33;7.90;92.50
54960;DHT22;40860;51.710;8.736;2023-05-19T03:37:37;7.80;92.70
54960;DHT22;40860;51.710;8.736;2023-05-19T03:41:41;7.70;93.00
54960;DHT22;40860;51.710;8.736;2023-05-19T03:45:44;7.70;93.00
54960;DHT22;40860;51.710;8.736;2023-05-19T03:50:06;7.60;93.10
54960;DHT22;40860;51.710;8.736;2023-05-19T03:54:22;7.60;93.20
54960;DHT22;40860;51.710;8.736;2023-05-19T03:58:26;7.50;93.90
54960;DHT22;40860;51.710;8.736;2023-05-19T04:02:30;7.40;94.20
54960;DHT22;40860;51.710;8.736;2023-05-19T04:06:33;7.40;94.30
54960;DHT22;40860;51.710;8.736;2023-05-19T04:10:36;7.40;94.40
54960;DHT22;40860;51.710;8.736;2023-05-19T04:14:41;7.40;94.70
54960;DHT22;40860;51.710;8.736;2023-05-19T04:18:45;7.40;95.20
54960;DHT22;40860;51.710;8.736;2023-05-19T04:22:48;7.40;95.40
54960;DHT22;40860;51.710;8.736;2023-05-19T04:26:51;7.50;95.30
54960;DHT22;40860;51.710;8.736;2023-05-19T04:30:55;7.50;95.30
54960;DHT22;40860;51.710;8.736;2023-05-19T04:34:59;7.60;95.70
54960;DHT22;40860;51.710;8.736;2023-05-19T04:39:03;7.60;95.80
54960;DHT22;40860;51.710;8.736;2023-05-19T04:43:09;7.70;99.50
54960;DHT22;40860;51.710;8.736;2023-05-19T04:47:15;7.90;99.90
54960;DHT22;40860;51.710;8.736;2023-05-19T04:55:22;8.20;99.60
54960;DHT22;40860;51.710;8.736;2023-05-19T04:59:25;8.30;98.00
54960;DHT22;40860;51.710;8.736;2023-05-19T05:03:30;8.40;97.90
54960;DHT22;40860;51.710;8.736;2023-05-19T05:07:35;8.50;97.60
54960;DHT22;40860;51.710;8.736;2023-05-19T05:11:38;8.60;97.60
54960;DHT22;40860;51.710;8.736;2023-05-19T05:15:43;8.70;94.40
54960;DHT22;40860;51.710;8.736;2023-05-19T05:19:49;8.80;94.40
54960;DHT22;40860;51.710;8.736;2023-05-19T05:23:52;9.00;94.00
54960;DHT22;40860;51.710;8.736;2023-05-19T05:27:59;9.50;94.00
54960;DHT22;40860;51.710;8.736;2023-05-19T05:32:06;11.40;93.00
54960;DHT22;40860;51.710;8.736;2023-05-19T05:36:11;11.80;90.50
54960;DHT22;40860;51.710;8.736;2023-05-19T05:40:15;12.60;86.00
54960;DHT22;40860;51.710;8.736;2023-05-19T05:44:18;12.20;84.20
54960;DHT22;40860;51.710;8.736;2023-05-19T05:48:21;11.70;86.30
54960;DHT22;40860;51.710;8.736;2023-05-19T05:52:29;11.60;87.10
54960;DHT22;40860;51.710;8.736;2023-05-19T05:56:34;11.80;85.80
54960;DHT22;40860;51.710;8.736;2023-05-19T06:00:41;11.90;85.60
54960;DHT22;40860;51.710;8.736;2023-05-19T06:04:45;12.00;86.40
54960;DHT22;40860;51.710;8.736;2023-05-19T06:08:50;12.20;86.10
54960;DHT22;40860;51.710;8.736;2023-05-19T06:12:53;12.40;84.90
54960;DHT22;40860;51.710;8.736;2023-05-19T06:16:57;12.50;84.50
54960;DHT22;40860;51.710;8.736;2023-05-19T06:21:02;12.40;84.30
54960;DHT22;40860;51.710;8.736;2023-05-19T06:25:07;12.30;84.60
54960;DHT22;40860;51.710;8.736;2023-05-19T06:29:10;12.40;84.60
54960;DHT22;40860;51.710;8.736;2023-05-19T06:33:14;13.80;83.30
54960;DHT22;40860;51.710;8.736;2023-05-19T06:37:17;14.10;79.80
54960;DHT22;40860;51.710;8.736;2023-05-19T06:41:21;14.00;79.70
54960;DHT22;40860;51.710;8.736;2023-05-19T06:45:25;14.40;78.80
54960;DHT22;40860;51.710;8.736;2023-05-19T06:49:30;15.50;77.40
54960;DHT22;40860;51.710;8.736;2023-05-19T06:53:34;15.60;93.40
54960;DHT22;40860;51.710;8.736;2023-05-19T07:01:47;15.30;71.50
54960;DHT22;40860;51.710;8.736;2023-05-19T07:05:51;14.80;71.60
54960;DHT22;40860;51.710;8.736;2023-05-19T07:09:54;14.60;71.10
54960;DHT22;40860;51.710;8.736;2023-05-19T07:13:58;14.90;70.60
54960;DHT22;40860;51.710;8.736;2023-05-19T07:18:07;16.20;67.50
54960;DHT22;40860;51.710;8.736;2023-05-19T07:22:14;17.60;59.90
54960;DHT22;40860;51.710;8.736;2023-05-19T07:26:17;18.70;54.80
54960;DHT22;40860;51.710;8.736;2023-05-19T07:30:21;20.30;52.80
54960;DHT22;40860;51.710;8.736;2023-05-19T07:34:24;21.50;47.30
54960;DHT22;40860;51.710;8.736;2023-05-19T07:38:27;22.40;46.20
54960;DHT22;40860;51.710;8.736;2023-05-19T07:42:32;23.10;43.90
54960;DHT22;40860;51.710;8.736;2023-05-19T07:46:38;23.20;43.10
54960;DHT22;40860;51.710;8.736;2023-05-19T07:50:42;22.90;43.50
54960;DHT22;40860;51.710;8.736;2023-05-19T07:54:45;23.40;43.70
54960;DHT22;40860;51.710;8.736;2023-05-19T07:58:48;23.40;41.70
54960;DHT22;40860;51.710;8.736;2023-05-19T08:02:53;23.00;41.80
54960;DHT22;40860;51.710;8.736;2023-05-19T08:06:59;22.00;42.20
54960;DHT22;40860;51.710;8.736;2023-05-19T08:11:02;21.40;44.10
54960;DHT22;40860;51.710;8.736;2023-05-19T08:15:06;20.70;44.40
54960;DHT22;40860;51.710;8.736;2023-05-19T08:19:13;20.50;43.60
54960;DHT22;40860;51.710;8.736;2023-05-19T08:23:17;20.80;44.40
54960;DHT22;40860;51.710;8.736;2023-05-19T08:27:20;20.90;43.30
54960;DHT22;40860;51.710;8.736;2023-05-19T08:31:23;20.70;43.10
54960;DHT22;40860;51.710;8.736;2023-05-19T08:35:27;20.80;43.50
54960;DHT22;40860;51.710;8.736;2023-05-19T08:39:30;20.80;42.00
54960;DHT22;40860;51.710;8.736;2023-05-19T08:43:34;20.90;42.40
54960;DHT22;40860;51.710;8.736;2023-05-19T08:47:38;20.50;42.40
54960;DHT22;40860;51.710;8.736;2023-05-19T08:51:46;19.60;43.10
54960;DHT22;40860;51.710;8.736;2023-05-19T08:55:58;19.50;44.10
54960;DHT22;40860;51.710;8.736;2023-05-19T09:00:03;19.60;50.90
54960;DHT22;40860;51.710;8.736;2023-05-19T09:04:09;19.80;45.70
54960;DHT22;40860;51.710;8.736;2023-05-19T09:08:14;20.10;44.80
54960;DHT22;40860;51.710;8.736;2023-05-19T09:12:17;20.40;44.40
54960;DHT22;40860;51.710;8.736;2023-05-19T09:16:20;20.40;44.70
54960;DHT22;40860;51.710;8.736;2023-05-19T09:20:23;20.50;44.60
54960;DHT22;40860;51.710;8.736;2023-05-19T09:24:28;20.90;44.00
54960;DHT22;40860;51.710;8.736;2023-05-19T09:28:34;20.80;43.70
54960;DHT22;40860;51.710;8.736;2023-05-19T09:32:37;21.10;44.70
54960;DHT22;40860;51.710;8.736;2023-05-19T09:36:42;21.50;44.40
54960;DHT22;40860;51.710;8.736;2023-05-19T09:40:48;21.00;42.20
54960;DHT22;40860;51.710;8.736;2023-05-19T09:45:00;21.00;42.90
54960;DHT22;40860;51.710;8.736;2023-05-19T09:49:07;20.90;43.10
54960;DHT22;40860;51.710;8.736;2023-05-19T09:53:12;21.00;43.00
54960;DHT22;40860;51.710;8.736;2023-05-19T09:57:17;20.70;43.10
54960;DHT22;40860;51.710;8.736;2023-05-19T10:01:20;20.90;44.10
54960;DHT22;40860;51.710;8.736;2023-05-19T10:05:24;20.20;45.40
54960;DHT22;40860;51.710;8.736;2023-05-19T10:09:28;19.80;45.50
54960;DHT22;40860;51.710;8.736;2023-05-19T10:13:34;19.60;46.90
54960;DHT22;40860;51.710;8.736;2023-05-19T10:17:40;19.90;46.50
54960;DHT22;40860;51.710;8.736;2023-05-19T10:21:43;19.80;46.00
54960;DHT22;40860;51.710;8.736;2023-05-19T10:25:47;19.60;45.90
54960;DHT22;40860;51.710;8.736;2023-05-19T10:29:57;19.50;46.80
54960;DHT22;40860;51.710;8.736;2023-05-19T10:34:19;19.60;47.40
54960;DHT22;40860;51.710;8.736;2023-05-19T10:38:29;19.60;45.80
54960;DHT22;40860;51.710;8.736;2023-05-19T10:42:39;20.10;45.60
54960;DHT22;40860;51.710;8.736;2023-05-19T10:46:44;20.00;45.10
54960;DHT22;40860;51.710;8.736;2023-05-19T10:50:51;19.80;44.00
54960;DHT22;40860;51.710;8.736;2023-05-19T10:54:55;20.00;45.20
54960;DHT22;40860;51.710;8.736;2023-05-19T10:58:59;20.00;44.40
54960;DHT22;40860;51.710;8.736;2023-05-19T11:03:13;20.10;45.00
54960;DHT22;40860;51.710;8.736;2023-05-19T11:07:17;19.50;44.20
54960;DHT22;40860;51.710;8.736;2023-05-19T11:11:21;19.20;45.50
54960;DHT22;40860;51.710;8.736;2023-05-19T11:15:25;19.10;46.00
54960;DHT22;40860;51.710;8.736;2023-05-19T11:19:31;19.40;45.90
54960;DHT22;40860;51.710;8.736;2023-05-19T11:23:37;19.70;46.20
54960;DHT22;40860;51.710;8.736;2023-05-19T11:27:41;19.60;44.80
54960;DHT22;40860;51.710;8.736;2023-05-19T11:31:48;19.30;45.50
54960;DHT22;40860;51.710;8.736;2023-05-19T11:35:53;19.20;45.50
54960;DHT22;40860;51.710;8.736;2023-05-19T11:40:00;19.50;46.60
54960;DHT22;40860;51.710;8.736;2023-05-19T11:44:09;19.60;45.80
54960;DHT22;40860;51.710;8.736;2023-05-19T11:48:12;19.60;45.50
54960;DHT22;40860;51.710;8.736;2023-05-19T11:52:20;19.90;46.00
54960;DHT22;40860;51.710;8.736;2023-05-19T11:56:23;20.40;45.20
54960;DHT22;40860;51.710;8.736;2023-05-19T12:00:27;20.10;45.90
54960;DHT22;40860;51.710;8.736;2023-05-19T12:04:30;19.80;45.60
54960;DHT22;40860;51.710;8.736;2023-05-19T12:08:35;20.10;45.70
54960;DHT22;40860;51.710;8.736;2023-05-19T12:12:40;20.40;45.20
54960;DHT22;40860;51.710;8.736;2023-05-19T12:16:45;20.30;45.30
54960;DHT22;40860;51.710;8.736;2023-05-19T12:20:48;20.40;45.00
54960;DHT22;40860;51.710;8.736;2023-05-19T12:24:53;20.60;44.80
54960;DHT22;40860;51.710;8.736;2023-05-19T12:28:57;20.90;45.30
54960;DHT22;40860;51.710;8.736;2023-05-19T12:33:00;21.00;44.40
54960;DHT22;40860;51.710;8.736;2023-05-19T12:37:04;20.50;44.50
54960;DHT22;40860;51.710;8.736;2023-05-19T12:41:11;20.40;45.20
54960;DHT22;40860;51.710;8.736;2023-05-19T12:45:14;20.20;45.90
54960;DHT22;40860;51.710;8.736;2023-05-19T12:49:17;20.50;46.00
54960;DHT22;40860;51.710;8.736;2023-05-19T12:53:20;20.90;45.10
54960;DHT22;40860;51.710;8.736;2023-05-19T12:57:26;20.60;43.80
54960;DHT22;40860;51.710;8.736;2023-05-19T13:01:30;20.50;44.30
54960;DHT22;40860;51.710;8.736;2023-05-19T13:05:36;20.70;44.60
54960;DHT22;40860;51.710;8.736;2023-05-19T13:09:39;21.00;43.70
54960;DHT22;40860;51.710;8.736;2023-05-19T13:13:44;21.00;43.50
54960;DHT22;40860;51.710;8.736;2023-05-19T13:17:47;20.80;44.50
54960;DHT22;40860;51.710;8.736;2023-05-19T13:21:50;20.90;44.00
54960;DHT22;40860;51.710;8.736;2023-05-19T13:25:53;20.50;43.60
54960;DHT22;40860;51.710;8.736;2023-05-19T13:29:58;20.60;44.00
54960;DHT22;40860;51.710;8.736;2023-05-19T13:34:01;20.70;43.80
54960;DHT22;40860;51.710;8.736;2023-05-19T13:38:05;20.80;44.50
54960;DHT22;40860;51.710;8.736;2023-05-19T13:42:08;21.10;43.60
54960;DHT22;40860;51.710;8.736;2023-05-19T13:46:12;21.20;43.90
54960;DHT22;40860;51.710;8.736;2023-05-19T13:50:15;21.10;43.50
54960;DHT22;40860;51.710;8.736;2023-05-19T13:54:18;20.90;43.50
54960;DHT22;40860;51.710;8.736;2023-05-19T13:58:21;21.00;44.10
54960;DHT22;40860;51.710;8.736;2023-05-19T14:02:25;21.60;44.20
54960;DHT22;40860;51.710;8.736;2023-05-19T14:06:28;21.80;43.50
54960;DHT22;40860;51.710;8.736;2023-05-19T14:10:32;21.70;43.10
54960;DHT22;40860;51.710;8.736;2023-05-19T14:14:35;21.60;43.20
54960;DHT22;40860;51.710;8.736;2023-05-19T14:18:40;21.50;42.70
54960;DHT22;40860;51.710;8.736;2023-05-19T14:22:43;21.30;43.50
54960;DHT22;40860;51.710;8.736;2023-05-19T14:26:47;21.40;44.20
54960;DHT22;40860;51.710;8.736;2023-05-19T14:30:50;21.20;43.30
54960;DHT22;40860;51.710;8.736;2023-05-19T14:34:55;21.30;43.90
54960;DHT22;40860;51.710;8.736;2023-05-19T14:38:58;21.60;43.80
54960;DHT22;40860;51.710;8.736;2023-05-19T14:43:00;21.70;42.90
54960;DHT22;40860;51.710;8.736;2023-05-19T14:47:04;21.20;42.90
54960;DHT22;40860;51.710;8.736;2023-05-19T14:51:09;20.80;43.70
54960;DHT22;40860;51.710;8.736;2023-05-19T14:55:12;20.60;43.80
54960;DHT22;40860;51.710;8.736;2023-05-19T14:59:15;20.60;44.10
54960;DHT22;40860;51.710;8.736;2023-05-19T15:03:18;20.60;44.40
54960;DHT22;40860;51.710;8.736;2023-05-19T15:07:22;20.90;43.80
54960;DHT22;40860;51.710;8.736;2023-05-19T15:11:26;21.00;43.10
54960;DHT22;40860;51.710;8.736;2023-05-19T15:15:29;21.00;43.60
54960;DHT22;40860;51.710;8.736;2023-05-19T15:19:32;21.00;43.40
54960;DHT22;40860;51.710;8.736;2023-05-19T15:23:36;20.90;43.50
54960;DHT22;40860;51.710;8.736;2023-05-19T15:27:39;20.90;43.80
54960;DHT22;40860;51.710;8.736;2023-05-19T15:31:42;20.60;43.60
54960;DHT22;40860;51.710;8.736;2023-05-19T15:35:45;20.40;44.40
54960;DHT22;40860;51.710;8.736;2023-05-19T15:39:56;20.30;44.60
54960;DHT22;40860;51.710;8.736;2023-05-19T15:43:59;20.60;43.30
54960;DHT22;40860;51.710;8.736;2023-05-19T15:48:03;20.70;43.50
54960;DHT22;40860;51.710;8.736;2023-05-19T15:52:06;20.70;43.30
54960;DHT22;40860;51.710;8.736;2023-05-19T15:56:11;20.60;44.00
54960;DHT22;40860;51.710;8.736;2023-05-19T16:00:14;20.50;44.40
54960;DHT22;40860;51.710;8.736;2023-05-19T16:04:17;20.20;44.70
54960;DHT22;40860;51.710;8.736;2023-05-19T16:08:20;20.00;45.70
54960;DHT22;40860;51.710;8.736;2023-05-19T16:12:24;19.70;45.60
54960;DHT22;40860;51.710;8.736;2023-05-19T16:16:28;19.50;46.20
54960;DHT22;40860;51.710;8.736;2023-05-19T16:20:31;19.60;46.20
54960;DHT22;40860;51.710;8.736;2023-05-19T16:24:35;19.80;45.90
54960;DHT22;40860;51.710;8.736;2023-05-19T16:28:39;19.70;46.10
54960;DHT22;40860;51.710;8.736;2023-05-19T16:32:42;19.80;46.40
54960;DHT22;40860;51.710;8.736;2023-05-19T16:36:44;19.70;46.60
54960;DHT22;40860;51.710;8.736;2023-05-19T16:40:47;19.40;46.70
54960;DHT22;40860;51.710;8.736;2023-05-19T16:44:52;19.40;47.30
54960;DHT22;40860;51.710;8.736;2023-05-19T16:48:55;19.50;46.90
54960;DHT22;40860;51.710;8.736;2023-05-19T16:52:58;19.70;47.00
54960;DHT22;40860;51.710;8.736;2023-05-19T16:57:01;19.70;47.10
54960;DHT22;40860;51.710;8.736;2023-05-19T17:01:05;19.60;47.30
54960;DHT22;40860;51.710;8.736;2023-05-19T17:05:08;19.40;46.60
54960;DHT22;40860;51.710;8.736;2023-05-19T17:09:12;19.30;46.50
54960;DHT22;40860;51.710;8.736;2023-05-19T17:13:15;19.30;47.20
54960;DHT22;40860;51.710;8.736;2023-05-19T17:17:19;19.20;46.90
54960;DHT22;40860;51.710;8.736;2023-05-19T17:21:22;19.00;47.90
54960;DHT22;40860;51.710;8.736;2023-05-19T17:25:25;19.00;48.20
54960;DHT22;40860;51.710;8.736;2023-05-19T17:29:28;18.90;48.30
54960;DHT22;40860;51.710;8.736;2023-05-19T17:33:32;18.70;48.20
54960;DHT22;40860;51.710;8.736;2023-05-19T17:37:35;18.60;48.50
54960;DHT22;40860;51.710;8.736;2023-05-19T17:41:38;18.50;48.40
54960;DHT22;40860;51.710;8.736;2023-05-19T17:45:41;18.50;48.70
54960;DHT22;40860;51.710;8.736;2023-05-19T17:49:45;18.40;48.70
54960;DHT22;40860;51.710;8.736;2023-05-19T17:53:49;18.20;49.20
54960;DHT22;40860;51.710;8.736;2023-05-19T17:57:53;18.20;49.30
54960;DHT22;40860;51.710;8.736;2023-05-19T18:01:56;18.20;49.80
54960;DHT22;40860;51.710;8.736;2023-05-19T18:06:01;18.10;49.90
54960;DHT22;40860;51.710;8.736;2023-05-19T18:10:05;17.90;50.10
54960;DHT22;40860;51.710;8.736;2023-05-19T18:14:09;17.90;50.30
54960;DHT22;40860;51.710;8.736;2023-05-19T18:18:11;17.80;50.40
54960;DHT22;40860;51.710;8.736;2023-05-19T18:22:16;17.70;50.90
54960;DHT22;40860;51.710;8.736;2023-05-19T18:26:19;17.70;51.60
54960;DHT22;40860;51.710;8.736;2023-05-19T18:30:22;17.60;52.00
54960;DHT22;40860;51.710;8.736;2023-05-19T18:34:25;17.50;52.10
54960;DHT22;40860;51.710;8.736;2023-05-19T18:38:31;17.40;52.50
54960;DHT22;40860;51.710;8.736;2023-05-19T18:42:34;17.30;52.60
54960;DHT22;40860;51.710;8.736;2023-05-19T18:46:38;17.20;53.30
54960;DHT22;40860;51.710;8.736;2023-05-19T18:50:41;17.10;53.30
54960;DHT22;40860;51.710;8.736;2023-05-19T18:54:46;17.00;53.70
54960;DHT22;40860;51.710;8.736;2023-05-19T18:58:51;16.90;54.10
54960;DHT22;40860;51.710;8.736;2023-05-19T19:02:54;16.80;54.20
54960;DHT22;40860;51.710;8.736;2023-05-19T19:06:57;16.70;54.20
54960;DHT22;40860;51.710;8.736;2023-05-19T19:11:01;16.70;54.70
54960;DHT22;40860;51.710;8.736;2023-05-19T19:15:07;16.60;55.00
54960;DHT22;40860;51.710;8.736;2023-05-19T19:19:10;16.50;55.30
54960;DHT22;40860;51.710;8.736;2023-05-19T19:23:13;16.40;55.50
54960;DHT22;40860;51.710;8.736;2023-05-19T19:27:18;16.30;56.10
54960;DHT22;40860;51.710;8.736;2023-05-19T19:31:22;16.20;56.50
54960;DHT22;40860;51.710;8.736;2023-05-19T19:35:26;16.10;56.80
54960;DHT22;40860;51.710;8.736;2023-05-19T19:39:30;16.00;57.10
54960;DHT22;40860;51.710;8.736;2023-05-19T19:43:34;15.90;57.10
54960;DHT22;40860;51.710;8.736;2023-05-19T19:47:37;15.80;57.60
54960;DHT22;40860;51.710;8.736;2023-05-19T19:51:40;15.80;58.00
54960;DHT22;40860;51.710;8.736;2023-05-19T19:55:44;15.70;58.40
54960;DHT22;40860;51.710;8.736;2023-05-19T19:59:49;15.60;58.70
54960;DHT22;40860;51.710;8.736;2023-05-19T20:03:55;15.40;58.90
54960;DHT22;40860;51.710;8.736;2023-05-19T20:07:59;15.40;59.20
54960;DHT22;40860;51.710;8.736;2023-05-19T20:12:02;15.30;59.50
54960;DHT22;40860;51.710;8.736;2023-05-19T20:16:07;15.30;59.70
54960;DHT22;40860;51.710;8.736;2023-05-19T20:20:11;15.20;59.70
54960;DHT22;40860;51.710;8.736;2023-05-19T20:24:14;15.20;60.20
54960;DHT22;40860;51.710;8.736;2023-05-19T20:28:17;15.10;61.00
54960;DHT22;40860;51.710;8.736;2023-05-19T20:32:26;15.00;61.60
54960;DHT22;40860;51.710;8.736;2023-05-19T20:36:29;14.90;61.90
54960;DHT22;40860;51.710;8.736;2023-05-19T20:40:32;14.80;62.40
54960;DHT22;40860;51.710;8.736;2023-05-19T20:44:36;14.80;63.00
54960;DHT22;40860;51.710;8.736;2023-05-19T20:48:40;14.70;63.10
54960;DHT22;40860;51.710;8.736;2023-05-19T20:52:43;14.60;65.20
54960;DHT22;40860;51.710;8.736;2023-05-19T20:56:46;14.50;65.60
54960;DHT22;40860;51.710;8.736;2023-05-19T21:00:49;14.40;66.60
54960;DHT22;40860;51.710;8.736;2023-05-19T21:05:00;14.20;68.00
54960;DHT22;40860;51.710;8.736;2023-05-19T21:09:04;14.10;69.20
54960;DHT22;40860;51.710;8.736;2023-05-19T21:13:07;14.00;70.60
54960;DHT22;40860;51.710;8.736;2023-05-19T21:17:10;13.90;71.50
54960;DHT22;40860;51.710;8.736;2023-05-19T21:21:15;13.80;72.50
54960;DHT22;40860;51.710;8.736;2023-05-19T21:25:18;13.60;73.40
54960;DHT22;40860;51.710;8.736;2023-05-19T21:29:24;13.60;75.20
54960;DHT22;40860;51.710;8.736;2023-05-19T21:33:27;13.40;76.30
54960;DHT22;40860;51.710;8.736;2023-05-19T21:37:33;13.30;77.40
54960;DHT22;40860;51.710;8.736;2023-05-19T21:41:37;13.20;78.20
54960;DHT22;40860;51.710;8.736;2023-05-19T21:45:40;13.10;79.30
54960;DHT22;40860;51.710;8.736;2023-05-19T21:49:43;13.00;80.00
54960;DHT22;40860;51.710;8.736;2023-05-19T21:53:47;13.00;80.40
54960;DHT22;40860;51.710;8.736;2023-05-19T21:57:50;13.00;81.00
54960;DHT22;40860;51.710;8.736;2023-05-19T22:01:53;13.00;80.10
54960;DHT22;40860;51.710;8.736;2023-05-19T22:05:56;13.10;79.90
54960;DHT22;40860;51.710;8.736;2023-05-19T22:10:00;13.00;80.40
54960;DHT22;40860;51.710;8.736;2023-05-19T22:14:03;12.90;81.20
54960;DHT22;40860;51.710;8.736;2023-05-19T22:18:06;12.80;83.00
54960;DHT22;40860;51.710;8.736;2023-05-19T22:22:09;12.60;83.20
54960;DHT22;40860;51.710;8.736;2023-05-19T22:26:18;12.60;83.40
54960;DHT22;40860;51.710;8.736;2023-05-19T22:30:24;12.50;84.00
54960;DHT22;40860;51.710;8.736;2023-05-19T22:34:27;12.60;83.00
54960;DHT22;40860;51.710;8.736;2023-05-19T22:38:30;12.60;83.00
54960;DHT22;40860;51.710;8.736;2023-05-19T22:42:35;12.60;83.00
54960;DHT22;40860;51.710;8.736;2023-05-19T22:46:39;12.60;83.50
54960;DHT22;40860;51.710;8.736;2023-05-19T22:50:42;12.50;84.90
54960;DHT22;40860;51.710;8.736;2023-05-19T22:54:45;12.40;85.60
54960;DHT22;40860;51.710;8.736;2023-05-19T22:58:49;12.30;85.50
54960;DHT22;40860;51.710;8.736;2023-05-19T23:02:51;12.20;86.60
54960;DHT22;40860;51.710;8.736;2023-05-19T23:06:54;12.20;87.30
54960;DHT22;40860;51.710;8.736;2023-05-19T23:10:58;12.10;87.20
54960;DHT22;40860;51.710;8.736;2023-05-19T23:15:05;12.00;88.30
54960;DHT22;40860;51.710;8.736;2023-05-19T23:19:08;12.00;87.80
54960;DHT22;40860;51.710;8.736;2023-05-19T23:23:11;11.90;88.00
54960;DHT22;40860;51.710;8.736;2023-05-19T23:27:14;11.90;88.10
54960;DHT22;40860;51.710;8.736;2023-05-19T23:31:18;11.90;87.70
54960;DHT22;40860;51.710;8.736;2023-05-19T23:35:21;11.90;88.20
54960;DHT22;40860;51.710;8.736;2023-05-19T23:39:24;11.80;87.90
54960;DHT22;40860;51.710;8.736;2023-05-19T23:43:28;11.80;87.90
54960;DHT22;40860;51.710;8.736;2023-05-19T23:47:34;11.80;88.20
54960;DHT22;40860;51.710;8.736;2023-05-19T23:51:37;11.70;88.70
54960;DHT22;40860;51.710;8.736;2023-05-19T23:55:40;11.70;88.60
54960;DHT22;40860;51.710;8.736;2023-05-19T23:59:43;11.60;88.80
